sensor_id;sensor_type;location;lat;lon;timestamp;P1;durP1;ratioP1;P2;durP2;ratioP2
11263;SDS011;5689;48.798;9.070;2023-04-24T00:00:12;0.10;;;0.10;;
11263;SDS011;5689;48.798;9.070;2023-04-24T00:02:41;0.20;;;0.20;;
11263;SDS011;5689;48.798;9.070;2023-04-24T00:05:11;0.10;;;0.10;;
11263;SDS011;5689;48.798;9.070;2023-04-24T00:07:40;0.10;;;0.10;;
11263;SDS011;5689;48.798;9.070;2023-04-24T00:10:08;0.10;;;0.10;;
11263;SDS011;5689;48.798;9.070;2023-04-24T00:12:38;0.10;;;0.10;;
11263;SDS011;5689;48.798;9.070;2023-04-24T00:15:07;0.10;;;0.10;;
11263;SDS011;5689;48.798;9.070;2023-04-24T00:17:36;0.10;;;0.10;;
11263;SDS011;5689;48.798;9.070;2023-04-24T00:20:04;0.10;;;0.10;;
11263;SDS011;5689;48.798;9.070;2023-04-24T00:22:33;0.10;;;0.10;;
11263;SDS011;5689;48.798;9.070;2023-04-24T00:25:01;0.10;;;0.10;;
11263;SDS011;5689;48.798;9.070;2023-04-24T00:27:29;0.10;;;0.10;;
11263;SDS011;5689;48.798;9.070;2023-04-24T00:29:58;0.10;;;0.10;;
11263;SDS011;5689;48.798;9.070;2023-04-24T00:32:26;0.10;;;0.10;;
11263;SDS011;5689;48.798;9.070;2023-04-24T00:34:54;0.10;;;0.10;;
11263;SDS011;5689;48.798;9.070;2023-04-24T00:37:22;0.10;;;0.10;;
11263;SDS011;5689;48.798;9.070;2023-04-24T00:39:50;0.13;;;0.13;;
11263;SDS011;5689;48.798;9.070;2023-04-24T00:42:18;0.10;;;0.10;;
11263;SDS011;5689;48.798;9.070;2023-04-24T00:44:47;0.10;;;0.10;;
11263;SDS011;5689;48.798;9.070;2023-04-24T00:47:17;0.10;;;0.10;;
11263;SDS011;5689;48.798;9.070;2023-04-24T00:49:48;0.10;;;0.10;;
11263;SDS011;5689;48.798;9.070;2023-04-24T00:52:16;0.10;;;0.10;;
11263;SDS011;5689;48.798;9.070;2023-04-24T00:54:44;0.10;;;0.10;;
11263;SDS011;5689;48.798;9.070;2023-04-24T00:57:13;0.10;;;0.10;;
11263;SDS011;5689;48.798;9.070;2023-04-24T00:59:41;0.10;;;0.10;;
11263;SDS011;5689;48.798;9.070;2023-04-24T01:02:10;0.10;;;0.10;;
11263;SDS011;5689;48.798;9.070;2023-04-24T01:04:40;0.10;;;0.10;;
11263;SDS011;5689;48.798;9.070;2023-04-24T01:07:08;0.10;;;0.10;;
11263;SDS011;5689;48.798;9.070;2023-04-24T01:09:37;0.10;;;0.10;;
11263;SDS011;5689;48.798;9.070;2023-04-24T01:12:07;0.10;;;0.10;;
11263;SDS011;5689;48.798;9.070;2023-04-24T01:14:36;0.10;;;0.10;;
11263;SDS011;5689;48.798;9.070;2023-04-24T01:17:05;0.10;;;0.10;;
11263;SDS011;5689;48.798;9.070;2023-04-24T01:19:33;0.10;;;0.10;;
11263;SDS011;5689;48.798;9.070;2023-04-24T01:24:37;0.10;;;0.10;;
11263;SDS011;5689;48.798;9.070;2023-04-24T01:27:06;0.10;;;0.10;;
11263;SDS011;5689;48.798;9.070;2023-04-24T01:29:34;0.10;;;0.10;;
11263;SDS011;5689;48.798;9.070;2023-04-24T01:32:02;0.10;;;0.10;;
11263;SDS011;5689;48.798;9.070;2023-04-24T01:34:31;0.10;;;0.10;;
11263;SDS011;5689;48.798;9.070;2023-04-24T01:36:59;0.00;;;0.00;;
11263;SDS011;5689;48.798;9.070;2023-04-24T01:39:30;0.10;;;0.10;;
11263;SDS011;5689;48.798;9.070;2023-04-24T01:41:59;0.10;;;0.10;;
11263;SDS011;5689;48.798;9.070;2023-04-24T01:44:28;0.10;;;0.10;;
11263;SDS011;5689;48.798;9.070;2023-04-24T01:46:57;0.10;;;0.10;;
11263;SDS011;5689;48.798;9.070;2023-04-24T01:49:26;0.10;;;0.10;;
11263;SDS011;5689;48.798;9.070;2023-04-24T01:51:54;0.10;;;0.10;;
11263;SDS011;5689;48.798;9.070;2023-04-24T01:54:22;0.10;;;0.10;;
11263;SDS011;5689;48.798;9.070;2023-04-24T01:56:51;0.10;;;0.10;;
11263;SDS011;5689;48.798;9.070;2023-04-24T01:59:19;0.20;;;0.20;;
11263;SDS011;5689;48.798;9.070;2023-04-24T02:01:49;0.10;;;0.10;;
11263;SDS011;5689;48.798;9.070;2023-04-24T02:04:18;0.10;;;0.10;;
11263;SDS011;5689;48.798;9.070;2023-04-24T02:06:46;0.10;;;0.10;;
11263;SDS011;5689;48.798;9.070;2023-04-24T02:09:14;0.10;;;0.10;;
11263;SDS011;5689;48.798;9.070;2023-04-24T02:11:43;0.10;;;0.10;;
11263;SDS011;5689;48.798;9.070;2023-04-24T02:14:12;0.10;;;0.10;;
11263;SDS011;5689;48.798;9.070;2023-04-24T02:16:40;0.10;;;0.10;;
11263;SDS011;5689;48.798;9.070;2023-04-24T02:19:08;0.10;;;0.10;;
11263;SDS011;5689;48.798;9.070;2023-04-24T02:21:36;0.20;;;0.20;;
11263;SDS011;5689;48.798;9.070;2023-04-24T02:24:07;0.10;;;0.10;;
11263;SDS011;5689;48.798;9.070;2023-04-24T02:26:35;0.10;;;0.10;;
11263;SDS011;5689;48.798;9.070;2023-04-24T02:29:03;0.10;;;0.10;;
11263;SDS011;5689;48.798;9.070;2023-04-24T02:31:32;0.10;;;0.10;;
11263;SDS011;5689;48.798;9.070;2023-04-24T02:34:00;0.10;;;0.10;;
11263;SDS011;5689;48.798;9.070;2023-04-24T02:36:28;0.20;;;0.20;;
11263;SDS011;5689;48.798;9.070;2023-04-24T02:38:56;0.20;;;0.20;;
11263;SDS011;5689;48.798;9.070;2023-04-24T02:41:24;0.10;;;0.10;;
11263;SDS011;5689;48.798;9.070;2023-04-24T02:43:57;0.10;;;0.10;;
11263;SDS011;5689;48.798;9.070;2023-04-24T02:46:25;0.20;;;0.20;;
11263;SDS011;5689;48.798;9.070;2023-04-24T02:48:55;0.20;;;0.20;;
11263;SDS011;5689;48.798;9.070;2023-04-24T02:51:23;0.20;;;0.20;;
11263;SDS011;5689;48.798;9.070;2023-04-24T02:53:51;0.20;;;0.20;;
11263;SDS011;5689;48.798;9.070;2023-04-24T02:56:19;0.13;;;0.13;;
11263;SDS011;5689;48.798;9.070;2023-04-24T02:58:47;0.20;;;0.20;;
11263;SDS011;5689;48.798;9.070;2023-04-24T03:01:15;0.20;;;0.20;;
11263;SDS011;5689;48.798;9.070;2023-04-24T03:03:44;0.20;;;0.20;;
11263;SDS011;5689;48.798;9.070;2023-04-24T03:06:13;0.20;;;0.20;;
11263;SDS011;5689;48.798;9.070;2023-04-24T03:08:41;0.10;;;0.10;;
11263;SDS011;5689;48.798;9.070;2023-04-24T03:11:10;0.20;;;0.20;;
11263;SDS011;5689;48.798;9.070;2023-04-24T03:13:38;0.20;;;0.20;;
11263;SDS011;5689;48.798;9.070;2023-04-24T03:16:05;0.10;;;0.10;;
11263;SDS011;5689;48.798;9.070;2023-04-24T03:18:34;0.20;;;0.20;;
11263;SDS011;5689;48.798;9.070;2023-04-24T03:21:03;0.10;;;0.10;;
11263;SDS011;5689;48.798;9.070;2023-04-24T03:23:32;0.30;;;0.30;;
11263;SDS011;5689;48.798;9.070;2023-04-24T03:26:00;0.20;;;0.20;;
11263;SDS011;5689;48.798;9.070;2023-04-24T03:28:29;0.30;;;0.30;;
11263;SDS011;5689;48.798;9.070;2023-04-24T03:31:02;0.10;;;0.10;;
11263;SDS011;5689;48.798;9.070;2023-04-24T03:33:34;0.10;;;0.10;;
11263;SDS011;5689;48.798;9.070;2023-04-24T03:36:02;0.10;;;0.10;;
11263;SDS011;5689;48.798;9.070;2023-04-24T03:38:39;0.20;;;0.20;;
11263;SDS011;5689;48.798;9.070;2023-04-24T03:41:20;0.20;;;0.20;;
11263;SDS011;5689;48.798;9.070;2023-04-24T03:43:53;0.20;;;0.20;;
11263;SDS011;5689;48.798;9.070;2023-04-24T03:46:21;0.13;;;0.13;;
11263;SDS011;5689;48.798;9.070;2023-04-24T03:48:53;0.30;;;0.30;;
11263;SDS011;5689;48.798;9.070;2023-04-24T03:51:26;0.40;;;0.40;;
11263;SDS011;5689;48.798;9.070;2023-04-24T03:54:04;0.40;;;0.40;;
11263;SDS011;5689;48.798;9.070;2023-04-24T03:56:35;0.40;;;0.40;;
11263;SDS011;5689;48.798;9.070;2023-04-24T03:59:03;0.30;;;0.30;;
11263;SDS011;5689;48.798;9.070;2023-04-24T04:01:31;0.30;;;0.30;;
11263;SDS011;5689;48.798;9.070;2023-04-24T04:04:09;0.40;;;0.40;;
11263;SDS011;5689;48.798;9.070;2023-04-24T04:06:37;0.30;;;0.30;;
11263;SDS011;5689;48.798;9.070;2023-04-24T04:09:07;0.30;;;0.30;;
11263;SDS011;5689;48.798;9.070;2023-04-24T04:11:35;0.40;;;0.40;;
11263;SDS011;5689;48.798;9.070;2023-04-24T04:14:04;0.40;;;0.40;;
11263;SDS011;5689;48.798;9.070;2023-04-24T04:16:34;0.30;;;0.30;;
11263;SDS011;5689;48.798;9.070;2023-04-24T04:19:04;0.40;;;0.40;;
11263;SDS011;5689;48.798;9.070;2023-04-24T04:21:32;0.50;;;0.50;;
11263;SDS011;5689;48.798;9.070;2023-04-24T04:24:12;0.30;;;0.30;;
11263;SDS011;5689;48.798;9.070;2023-04-24T04:26:43;0.40;;;0.40;;
11263;SDS011;5689;48.798;9.070;2023-04-24T04:29:21;0.30;;;0.30;;
11263;SDS011;5689;48.798;9.070;2023-04-24T04:31:50;0.30;;;0.30;;
11263;SDS011;5689;48.798;9.070;2023-04-24T04:34:20;0.30;;;0.30;;
11263;SDS011;5689;48.798;9.070;2023-04-24T04:36:49;0.40;;;0.40;;
11263;SDS011;5689;48.798;9.070;2023-04-24T04:39:51;0.40;;;0.40;;
11263;SDS011;5689;48.798;9.070;2023-04-24T04:42:22;0.40;;;0.40;;
11263;SDS011;5689;48.798;9.070;2023-04-24T04:44:50;0.30;;;0.30;;
11263;SDS011;5689;48.798;9.070;2023-04-24T04:47:24;0.50;;;0.50;;
11263;SDS011;5689;48.798;9.070;2023-04-24T04:49:55;0.40;;;0.40;;
11263;SDS011;5689;48.798;9.070;2023-04-24T04:52:26;0.30;;;0.30;;
11263;SDS011;5689;48.798;9.070;2023-04-24T04:55:07;0.43;;;0.43;;
11263;SDS011;5689;48.798;9.070;2023-04-24T04:58:02;0.50;;;0.50;;
11263;SDS011;5689;48.798;9.070;2023-04-24T05:00:30;0.40;;;0.40;;
11263;SDS011;5689;48.798;9.070;2023-04-24T05:03:06;0.50;;;0.50;;
11263;SDS011;5689;48.798;9.070;2023-04-24T05:05:44;0.50;;;0.50;;
11263;SDS011;5689;48.798;9.070;2023-04-24T05:08:15;0.43;;;0.43;;
11263;SDS011;5689;48.798;9.070;2023-04-24T05:10:50;0.40;;;0.40;;
11263;SDS011;5689;48.798;9.070;2023-04-24T05:13:18;0.40;;;0.40;;
11263;SDS011;5689;48.798;9.070;2023-04-24T05:15:48;0.40;;;0.40;;
11263;SDS011;5689;48.798;9.070;2023-04-24T05:18:17;0.50;;;0.50;;
11263;SDS011;5689;48.798;9.070;2023-04-24T05:20:45;0.30;;;0.30;;
11263;SDS011;5689;48.798;9.070;2023-04-24T05:23:15;0.40;;;0.40;;
11263;SDS011;5689;48.798;9.070;2023-04-24T05:25:46;0.30;;;0.30;;
11263;SDS011;5689;48.798;9.070;2023-04-24T05:28:15;0.30;;;0.30;;
11263;SDS011;5689;48.798;9.070;2023-04-24T05:30:49;0.30;;;0.30;;
11263;SDS011;5689;48.798;9.070;2023-04-24T05:33:18;0.40;;;0.40;;
11263;SDS011;5689;48.798;9.070;2023-04-24T05:35:46;0.40;;;0.40;;
11263;SDS011;5689;48.798;9.070;2023-04-24T05:38:14;0.40;;;0.40;;
11263;SDS011;5689;48.798;9.070;2023-04-24T05:40:44;0.40;;;0.40;;
11263;SDS011;5689;48.798;9.070;2023-04-24T05:43:12;0.40;;;0.40;;
11263;SDS011;5689;48.798;9.070;2023-04-24T05:45:42;0.40;;;0.40;;
11263;SDS011;5689;48.798;9.070;2023-04-24T05:48:09;0.40;;;0.40;;
11263;SDS011;5689;48.798;9.070;2023-04-24T05:50:37;0.40;;;0.40;;
11263;SDS011;5689;48.798;9.070;2023-04-24T05:53:06;0.43;;;0.43;;
11263;SDS011;5689;48.798;9.070;2023-04-24T05:55:35;0.40;;;0.40;;
11263;SDS011;5689;48.798;9.070;2023-04-24T05:58:04;0.50;;;0.50;;
11263;SDS011;5689;48.798;9.070;2023-04-24T06:00:35;0.40;;;0.40;;
11263;SDS011;5689;48.798;9.070;2023-04-24T06:03:07;0.40;;;0.40;;
11263;SDS011;5689;48.798;9.070;2023-04-24T06:05:36;0.40;;;0.40;;
11263;SDS011;5689;48.798;9.070;2023-04-24T06:08:04;0.30;;;0.30;;
11263;SDS011;5689;48.798;9.070;2023-04-24T06:10:35;0.50;;;0.50;;
11263;SDS011;5689;48.798;9.070;2023-04-24T06:13:05;0.53;;;0.53;;
11263;SDS011;5689;48.798;9.070;2023-04-24T06:15:35;0.40;;;0.40;;
11263;SDS011;5689;48.798;9.070;2023-04-24T06:18:08;0.40;;;0.40;;
11263;SDS011;5689;48.798;9.070;2023-04-24T06:20:37;0.30;;;0.30;;
11263;SDS011;5689;48.798;9.070;2023-04-24T06:23:08;0.20;;;0.20;;
11263;SDS011;5689;48.798;9.070;2023-04-24T06:25:36;0.20;;;0.20;;
11263;SDS011;5689;48.798;9.070;2023-04-24T06:28:04;0.25;;;0.25;;
11263;SDS011;5689;48.798;9.070;2023-04-24T06:30:32;0.20;;;0.20;;
11263;SDS011;5689;48.798;9.070;2023-04-24T06:33:00;0.20;;;0.20;;
11263;SDS011;5689;48.798;9.070;2023-04-24T06:35:32;0.20;;;0.20;;
11263;SDS011;5689;48.798;9.070;2023-04-24T06:38:00;0.22;;;0.22;;
11263;SDS011;5689;48.798;9.070;2023-04-24T06:40:28;0.20;;;0.20;;
11263;SDS011;5689;48.798;9.070;2023-04-24T06:42:56;0.20;;;0.20;;
11263;SDS011;5689;48.798;9.070;2023-04-24T06:45:26;0.17;;;0.17;;
11263;SDS011;5689;48.798;9.070;2023-04-24T06:47:54;0.10;;;0.10;;
11263;SDS011;5689;48.798;9.070;2023-04-24T06:50:22;0.10;;;0.10;;
11263;SDS011;5689;48.798;9.070;2023-04-24T06:52:51;0.22;;;0.22;;
11263;SDS011;5689;48.798;9.070;2023-04-24T06:55:19;0.20;;;0.20;;
11263;SDS011;5689;48.798;9.070;2023-04-24T06:57:47;0.10;;;0.10;;
11263;SDS011;5689;48.798;9.070;2023-04-24T07:00:15;0.10;;;0.10;;
11263;SDS011;5689;48.798;9.070;2023-04-24T07:02:43;0.10;;;0.10;;
11263;SDS011;5689;48.798;9.070;2023-04-24T07:05:11;0.10;;;0.10;;
11263;SDS011;5689;48.798;9.070;2023-04-24T07:07:41;0.30;;;0.30;;
11263;SDS011;5689;48.798;9.070;2023-04-24T07:10:10;0.20;;;0.20;;
11263;SDS011;5689;48.798;9.070;2023-04-24T07:12:42;0.20;;;0.20;;
11263;SDS011;5689;48.798;9.070;2023-04-24T07:15:10;0.20;;;0.20;;
11263;SDS011;5689;48.798;9.070;2023-04-24T07:17:38;0.10;;;0.10;;
11263;SDS011;5689;48.798;9.070;2023-04-24T07:20:10;0.28;;;0.28;;
11263;SDS011;5689;48.798;9.070;2023-04-24T07:22:38;0.20;;;0.20;;
11263;SDS011;5689;48.798;9.070;2023-04-24T07:25:06;0.30;;;0.30;;
11263;SDS011;5689;48.798;9.070;2023-04-24T07:27:36;0.30;;;0.30;;
11263;SDS011;5689;48.798;9.070;2023-04-24T07:30:04;0.20;;;0.20;;
11263;SDS011;5689;48.798;9.070;2023-04-24T07:32:33;0.20;;;0.20;;
11263;SDS011;5689;48.798;9.070;2023-04-24T07:35:02;0.20;;;0.20;;
11263;SDS011;5689;48.798;9.070;2023-04-24T07:37:30;0.20;;;0.20;;
11263;SDS011;5689;48.798;9.070;2023-04-24T07:39:58;0.20;;;0.20;;
11263;SDS011;5689;48.798;9.070;2023-04-24T07:42:26;0.15;;;0.15;;
11263;SDS011;5689;48.798;9.070;2023-04-24T07:44:57;0.20;;;0.20;;
11263;SDS011;5689;48.798;9.070;2023-04-24T07:47:28;0.30;;;0.30;;
11263;SDS011;5689;48.798;9.070;2023-04-24T07:49:56;0.30;;;0.30;;
11263;SDS011;5689;48.798;9.070;2023-04-24T07:52:24;0.30;;;0.30;;
11263;SDS011;5689;48.798;9.070;2023-04-24T07:54:52;0.20;;;0.20;;
11263;SDS011;5689;48.798;9.070;2023-04-24T07:57:24;0.20;;;0.20;;
11263;SDS011;5689;48.798;9.070;2023-04-24T07:59:52;0.30;;;0.30;;
11263;SDS011;5689;48.798;9.070;2023-04-24T08:02:22;0.30;;;0.30;;
11263;SDS011;5689;48.798;9.070;2023-04-24T08:04:52;0.20;;;0.20;;
11263;SDS011;5689;48.798;9.070;2023-04-24T08:07:21;0.22;;;0.22;;
11263;SDS011;5689;48.798;9.070;2023-04-24T08:09:50;0.20;;;0.20;;
11263;SDS011;5689;48.798;9.070;2023-04-24T08:12:18;0.20;;;0.20;;
11263;SDS011;5689;48.798;9.070;2023-04-24T08:14:46;0.30;;;0.30;;
11263;SDS011;5689;48.798;9.070;2023-04-24T08:17:14;0.20;;;0.20;;
11263;SDS011;5689;48.798;9.070;2023-04-24T08:19:44;0.20;;;0.20;;
11263;SDS011;5689;48.798;9.070;2023-04-24T08:22:17;0.20;;;0.20;;
11263;SDS011;5689;48.798;9.070;2023-04-24T08:24:45;0.20;;;0.20;;
11263;SDS011;5689;48.798;9.070;2023-04-24T08:27:13;0.28;;;0.28;;
11263;SDS011;5689;48.798;9.070;2023-04-24T08:29:41;0.20;;;0.20;;
11263;SDS011;5689;48.798;9.070;2023-04-24T08:32:09;0.22;;;0.22;;
11263;SDS011;5689;48.798;9.070;2023-04-24T08:34:37;0.20;;;0.20;;
11263;SDS011;5689;48.798;9.070;2023-04-24T08:37:06;0.20;;;0.20;;
11263;SDS011;5689;48.798;9.070;2023-04-24T08:39:34;0.20;;;0.20;;
11263;SDS011;5689;48.798;9.070;2023-04-24T08:42:02;0.20;;;0.20;;
11263;SDS011;5689;48.798;9.070;2023-04-24T08:44:34;0.40;;;0.40;;
11263;SDS011;5689;48.798;9.070;2023-04-24T08:47:03;0.20;;;0.20;;
11263;SDS011;5689;48.798;9.070;2023-04-24T08:49:32;0.25;;;0.25;;
11263;SDS011;5689;48.798;9.070;2023-04-24T08:52:03;0.20;;;0.20;;
11263;SDS011;5689;48.798;9.070;2023-04-24T08:54:36;0.20;;;0.20;;
11263;SDS011;5689;48.798;9.070;2023-04-24T08:57:05;0.20;;;0.20;;
11263;SDS011;5689;48.798;9.070;2023-04-24T08:59:37;0.30;;;0.30;;
11263;SDS011;5689;48.798;9.070;2023-04-24T09:02:05;0.30;;;0.30;;
11263;SDS011;5689;48.798;9.070;2023-04-24T09:04:37;0.30;;;0.30;;
11263;SDS011;5689;48.798;9.070;2023-04-24T09:07:06;0.20;;;0.20;;
11263;SDS011;5689;48.798;9.070;2023-04-24T09:09:36;0.30;;;0.30;;
11263;SDS011;5689;48.798;9.070;2023-04-24T09:12:06;0.23;;;0.23;;
11263;SDS011;5689;48.798;9.070;2023-04-24T09:14:36;0.40;;;0.40;;
11263;SDS011;5689;48.798;9.070;2023-04-24T09:17:08;0.40;;;0.40;;
11263;SDS011;5689;48.798;9.070;2023-04-24T09:19:36;0.40;;;0.40;;
11263;SDS011;5689;48.798;9.070;2023-04-24T09:22:04;0.40;;;0.40;;
11263;SDS011;5689;48.798;9.070;2023-04-24T09:24:34;0.43;;;0.43;;
11263;SDS011;5689;48.798;9.070;2023-04-24T09:27:02;0.30;;;0.30;;
11263;SDS011;5689;48.798;9.070;2023-04-24T09:29:31;0.47;;;0.47;;
11263;SDS011;5689;48.798;9.070;2023-04-24T09:31:59;0.30;;;0.30;;
11263;SDS011;5689;48.798;9.070;2023-04-24T09:34:47;0.30;;;0.30;;
11263;SDS011;5689;48.798;9.070;2023-04-24T09:37:28;0.40;;;0.40;;
11263;SDS011;5689;48.798;9.070;2023-04-24T09:40:12;0.17;;;0.17;;
11263;SDS011;5689;48.798;9.070;2023-04-24T09:42:43;0.20;;;0.20;;
11263;SDS011;5689;48.798;9.070;2023-04-24T09:45:12;0.10;;;0.10;;
11263;SDS011;5689;48.798;9.070;2023-04-24T09:47:41;0.20;;;0.20;;
11263;SDS011;5689;48.798;9.070;2023-04-24T09:50:10;0.20;;;0.20;;
11263;SDS011;5689;48.798;9.070;2023-04-24T09:52:46;0.30;;;0.30;;
11263;SDS011;5689;48.798;9.070;2023-04-24T09:55:23;0.20;;;0.20;;
11263;SDS011;5689;48.798;9.070;2023-04-24T09:57:52;0.32;;;0.32;;
11263;SDS011;5689;48.798;9.070;2023-04-24T10:00:22;0.20;;;0.20;;
11263;SDS011;5689;48.798;9.070;2023-04-24T10:02:54;0.20;;;0.20;;
11263;SDS011;5689;48.798;9.070;2023-04-24T10:05:24;0.30;;;0.30;;
11263;SDS011;5689;48.798;9.070;2023-04-24T10:07:59;0.30;;;0.30;;
11263;SDS011;5689;48.798;9.070;2023-04-24T10:10:29;0.20;;;0.20;;
11263;SDS011;5689;48.798;9.070;2023-04-24T10:12:57;0.20;;;0.20;;
11263;SDS011;5689;48.798;9.070;2023-04-24T10:15:27;0.20;;;0.20;;
11263;SDS011;5689;48.798;9.070;2023-04-24T10:17:55;0.20;;;0.20;;
11263;SDS011;5689;48.798;9.070;2023-04-24T10:20:26;0.30;;;0.30;;
11263;SDS011;5689;48.798;9.070;2023-04-24T10:22:57;0.20;;;0.20;;
11263;SDS011;5689;48.798;9.070;2023-04-24T10:25:28;0.10;;;0.10;;
11263;SDS011;5689;48.798;9.070;2023-04-24T10:27:58;0.10;;;0.10;;
11263;SDS011;5689;48.798;9.070;2023-04-24T10:30:30;0.15;;;0.15;;
11263;SDS011;5689;48.798;9.070;2023-04-24T10:33:01;0.22;;;0.22;;
11263;SDS011;5689;48.798;9.070;2023-04-24T10:35:30;0.20;;;0.20;;
11263;SDS011;5689;48.798;9.070;2023-04-24T10:37:59;0.25;;;0.25;;
11263;SDS011;5689;48.798;9.070;2023-04-24T10:40:33;0.30;;;0.30;;
11263;SDS011;5689;48.798;9.070;2023-04-24T10:43:03;0.30;;;0.30;;
11263;SDS011;5689;48.798;9.070;2023-04-24T10:45:32;0.30;;;0.30;;
11263;SDS011;5689;48.798;9.070;2023-04-24T10:48:01;0.30;;;0.30;;
11263;SDS011;5689;48.798;9.070;2023-04-24T10:50:42;0.30;;;0.30;;
11263;SDS011;5689;48.798;9.070;2023-04-24T10:53:15;0.30;;;0.30;;
11263;SDS011;5689;48.798;9.070;2023-04-24T10:55:49;0.20;;;0.20;;
11263;SDS011;5689;48.798;9.070;2023-04-24T10:58:21;0.20;;;0.20;;
11263;SDS011;5689;48.798;9.070;2023-04-24T11:00:55;0.22;;;0.22;;
11263;SDS011;5689;48.798;9.070;2023-04-24T11:03:25;0.30;;;0.30;;
11263;SDS011;5689;48.798;9.070;2023-04-24T11:05:55;0.30;;;0.30;;
11263;SDS011;5689;48.798;9.070;2023-04-24T11:08:29;0.30;;;0.30;;
11263;SDS011;5689;48.798;9.070;2023-04-24T11:11:01;0.20;;;0.20;;
11263;SDS011;5689;48.798;9.070;2023-04-24T11:16:32;0.30;;;0.30;;
11263;SDS011;5689;48.798;9.070;2023-04-24T11:19:03;0.20;;;0.20;;
11263;SDS011;5689;48.798;9.070;2023-04-24T11:21:38;0.20;;;0.20;;
11263;SDS011;5689;48.798;9.070;2023-04-24T11:24:23;0.20;;;0.20;;
11263;SDS011;5689;48.798;9.070;2023-04-24T11:26:56;0.20;;;0.20;;
11263;SDS011;5689;48.798;9.070;2023-04-24T11:29:38;0.20;;;0.20;;
11263;SDS011;5689;48.798;9.070;2023-04-24T11:32:17;0.10;;;0.10;;
11263;SDS011;5689;48.798;9.070;2023-04-24T11:34:50;0.20;;;0.20;;
11263;SDS011;5689;48.798;9.070;2023-04-24T11:37:19;0.20;;;0.20;;
11263;SDS011;5689;48.798;9.070;2023-04-24T11:39:49;0.20;;;0.20;;
11263;SDS011;5689;48.798;9.070;2023-04-24T11:42:20;0.30;;;0.30;;
11263;SDS011;5689;48.798;9.070;2023-04-24T11:44:49;0.20;;;0.20;;
11263;SDS011;5689;48.798;9.070;2023-04-24T11:47:18;0.30;;;0.30;;
11263;SDS011;5689;48.798;9.070;2023-04-24T11:49:49;0.20;;;0.20;;
11263;SDS011;5689;48.798;9.070;2023-04-24T11:52:17;0.30;;;0.30;;
11263;SDS011;5689;48.798;9.070;2023-04-24T11:54:47;0.30;;;0.30;;
11263;SDS011;5689;48.798;9.070;2023-04-24T11:57:16;0.20;;;0.20;;
11263;SDS011;5689;48.798;9.070;2023-04-24T11:59:48;0.20;;;0.20;;
11263;SDS011;5689;48.798;9.070;2023-04-24T12:02:20;0.17;;;0.17;;
11263;SDS011;5689;48.798;9.070;2023-04-24T12:04:49;0.15;;;0.15;;
11263;SDS011;5689;48.798;9.070;2023-04-24T12:07:17;0.10;;;0.10;;
11263;SDS011;5689;48.798;9.070;2023-04-24T12:09:46;0.20;;;0.20;;
11263;SDS011;5689;48.798;9.070;2023-04-24T12:12:17;0.13;;;0.13;;
11263;SDS011;5689;48.798;9.070;2023-04-24T12:14:52;0.20;;;0.20;;
11263;SDS011;5689;48.798;9.070;2023-04-24T12:17:25;0.30;;;0.30;;
11263;SDS011;5689;48.798;9.070;2023-04-24T12:19:57;0.30;;;0.30;;
11263;SDS011;5689;48.798;9.070;2023-04-24T12:22:26;0.22;;;0.22;;
11263;SDS011;5689;48.798;9.070;2023-04-24T12:24:58;0.20;;;0.20;;
11263;SDS011;5689;48.798;9.070;2023-04-24T12:27:31;0.20;;;0.20;;
11263;SDS011;5689;48.798;9.070;2023-04-24T12:30:02;0.20;;;0.20;;
11263;SDS011;5689;48.798;9.070;2023-04-24T12:32:32;0.30;;;0.30;;
11263;SDS011;5689;48.798;9.070;2023-04-24T12:35:00;0.20;;;0.20;;
11263;SDS011;5689;48.798;9.070;2023-04-24T12:37:33;0.10;;;0.10;;
11263;SDS011;5689;48.798;9.070;2023-04-24T12:40:03;0.20;;;0.20;;
11263;SDS011;5689;48.798;9.070;2023-04-24T12:42:33;0.20;;;0.20;;
11263;SDS011;5689;48.798;9.070;2023-04-24T12:45:03;0.20;;;0.20;;
11263;SDS011;5689;48.798;9.070;2023-04-24T12:47:33;0.20;;;0.20;;
11263;SDS011;5689;48.798;9.070;2023-04-24T12:50:02;0.20;;;0.20;;
11263;SDS011;5689;48.798;9.070;2023-04-24T12:52:32;0.10;;;0.10;;
11263;SDS011;5689;48.798;9.070;2023-04-24T12:55:00;0.38;;;0.38;;
11263;SDS011;5689;48.798;9.070;2023-04-24T12:57:29;0.40;;;0.40;;
11263;SDS011;5689;48.798;9.070;2023-04-24T12:59:58;0.40;;;0.40;;
11263;SDS011;5689;48.798;9.070;2023-04-24T13:02:28;0.33;;;0.33;;
11263;SDS011;5689;48.798;9.070;2023-04-24T13:04:57;0.40;;;0.40;;
11263;SDS011;5689;48.798;9.070;2023-04-24T13:07:26;0.30;;;0.30;;
11263;SDS011;5689;48.798;9.070;2023-04-24T13:09:55;0.20;;;0.20;;
11263;SDS011;5689;48.798;9.070;2023-04-24T13:12:24;0.20;;;0.20;;
11263;SDS011;5689;48.798;9.070;2023-04-24T13:14:52;0.30;;;0.30;;
11263;SDS011;5689;48.798;9.070;2023-04-24T13:17:21;0.40;;;0.40;;
11263;SDS011;5689;48.798;9.070;2023-04-24T13:19:50;0.20;;;0.20;;
11263;SDS011;5689;48.798;9.070;2023-04-24T13:22:19;0.28;;;0.28;;
11263;SDS011;5689;48.798;9.070;2023-04-24T13:24:47;0.20;;;0.20;;
11263;SDS011;5689;48.798;9.070;2023-04-24T13:27:15;0.20;;;0.20;;
11263;SDS011;5689;48.798;9.070;2023-04-24T13:29:43;0.20;;;0.20;;
11263;SDS011;5689;48.798;9.070;2023-04-24T13:32:12;0.20;;;0.20;;
11263;SDS011;5689;48.798;9.070;2023-04-24T13:34:40;0.30;;;0.30;;
11263;SDS011;5689;48.798;9.070;2023-04-24T13:37:10;0.20;;;0.20;;
11263;SDS011;5689;48.798;9.070;2023-04-24T13:39:38;0.20;;;0.20;;
11263;SDS011;5689;48.798;9.070;2023-04-24T13:42:07;0.20;;;0.20;;
11263;SDS011;5689;48.798;9.070;2023-04-24T13:44:35;0.27;;;0.27;;
11263;SDS011;5689;48.798;9.070;2023-04-24T13:47:03;0.40;;;0.40;;
11263;SDS011;5689;48.798;9.070;2023-04-24T13:49:31;0.40;;;0.40;;
11263;SDS011;5689;48.798;9.070;2023-04-24T13:51:59;0.40;;;0.40;;
11263;SDS011;5689;48.798;9.070;2023-04-24T13:54:29;0.30;;;0.30;;
11263;SDS011;5689;48.798;9.070;2023-04-24T13:56:57;0.30;;;0.30;;
11263;SDS011;5689;48.798;9.070;2023-04-24T13:59:26;0.30;;;0.30;;
11263;SDS011;5689;48.798;9.070;2023-04-24T14:01:54;0.30;;;0.30;;
11263;SDS011;5689;48.798;9.070;2023-04-24T14:04:22;0.30;;;0.30;;
11263;SDS011;5689;48.798;9.070;2023-04-24T14:06:50;0.25;;;0.25;;
11263;SDS011;5689;48.798;9.070;2023-04-24T14:09:18;0.17;;;0.17;;
11263;SDS011;5689;48.798;9.070;2023-04-24T14:11:47;0.20;;;0.20;;
11263;SDS011;5689;48.798;9.070;2023-04-24T14:14:15;0.10;;;0.10;;
11263;SDS011;5689;48.798;9.070;2023-04-24T14:16:43;0.20;;;0.20;;
11263;SDS011;5689;48.798;9.070;2023-04-24T14:19:11;0.20;;;0.20;;
11263;SDS011;5689;48.798;9.070;2023-04-24T14:21:39;0.20;;;0.20;;
11263;SDS011;5689;48.798;9.070;2023-04-24T14:24:07;0.20;;;0.20;;
11263;SDS011;5689;48.798;9.070;2023-04-24T14:26:35;0.20;;;0.20;;
11263;SDS011;5689;48.798;9.070;2023-04-24T14:29:05;0.20;;;0.20;;
11263;SDS011;5689;48.798;9.070;2023-04-24T14:31:39;0.10;;;0.10;;
11263;SDS011;5689;48.798;9.070;2023-04-24T14:34:07;0.10;;;0.10;;
11263;SDS011;5689;48.798;9.070;2023-04-24T14:36:35;0.20;;;0.20;;
11263;SDS011;5689;48.798;9.070;2023-04-24T14:39:03;0.20;;;0.20;;
11263;SDS011;5689;48.798;9.070;2023-04-24T14:41:33;0.20;;;0.20;;
11263;SDS011;5689;48.798;9.070;2023-04-24T14:44:02;0.20;;;0.20;;
11263;SDS011;5689;48.798;9.070;2023-04-24T14:46:31;0.20;;;0.20;;
11263;SDS011;5689;48.798;9.070;2023-04-24T14:48:59;0.20;;;0.20;;
11263;SDS011;5689;48.798;9.070;2023-04-24T14:51:27;0.20;;;0.20;;
11263;SDS011;5689;48.798;9.070;2023-04-24T14:53:56;0.20;;;0.20;;
11263;SDS011;5689;48.798;9.070;2023-04-24T14:56:24;0.10;;;0.10;;
11263;SDS011;5689;48.798;9.070;2023-04-24T14:58:52;0.10;;;0.10;;
11263;SDS011;5689;48.798;9.070;2023-04-24T15:01:21;0.10;;;0.10;;
11263;SDS011;5689;48.798;9.070;2023-04-24T15:03:51;0.10;;;0.10;;
11263;SDS011;5689;48.798;9.070;2023-04-24T15:06:19;0.30;;;0.30;;
11263;SDS011;5689;48.798;9.070;2023-04-24T15:08:47;0.20;;;0.20;;
11263;SDS011;5689;48.798;9.070;2023-04-24T15:11:16;0.20;;;0.20;;
11263;SDS011;5689;48.798;9.070;2023-04-24T15:13:44;0.30;;;0.30;;
11263;SDS011;5689;48.798;9.070;2023-04-24T15:16:12;0.25;;;0.25;;
11263;SDS011;5689;48.798;9.070;2023-04-24T15:18:40;0.30;;;0.30;;
11263;SDS011;5689;48.798;9.070;2023-04-24T15:21:09;0.30;;;0.30;;